地図

経路データ

SID SEASON NUMBER BASIN SUBBASIN NAME ISO_TIME NATURE LAT LON WMO_WIND WMO_PRES WMO_AGENCY TRACK_TYPE DIST2LAND LANDFALL IFLAG USA_AGENCY USA_ATCF_ID USA_LAT USA_LON USA_RECORD USA_STATUS USA_WIND USA_PRES USA_SSHS USA_R34_NE USA_R34_SE USA_R34_SW USA_R34_NW USA_R50_NE USA_R50_SE USA_R50_SW USA_R50_NW USA_R64_NE USA_R64_SE USA_R64_SW USA_R64_NW USA_POCI USA_ROCI USA_RMW USA_EYE TOKYO_LAT TOKYO_LON TOKYO_GRADE TOKYO_WIND TOKYO_PRES TOKYO_R50_DIR TOKYO_R50_LONG TOKYO_R50_SHORT TOKYO_R30_DIR TOKYO_R30_LONG TOKYO_R30_SHORT TOKYO_LAND CMA_LAT CMA_LON CMA_CAT CMA_WIND CMA_PRES HKO_LAT HKO_LON HKO_CAT HKO_WIND HKO_PRES NEWDELHI_LAT NEWDELHI_LON NEWDELHI_GRADE NEWDELHI_WIND NEWDELHI_PRES NEWDELHI_CI NEWDELHI_DP NEWDELHI_POCI REUNION_LAT REUNION_LON REUNION_TYPE REUNION_WIND REUNION_PRES REUNION_TNUM REUNION_CI REUNION_RMW REUNION_R34_NE REUNION_R34_SE REUNION_R34_SW REUNION_R34_NW REUNION_R50_NE REUNION_R50_SE REUNION_R50_SW REUNION_R50_NW REUNION_R64_NE REUNION_R64_SE REUNION_R64_SW REUNION_R64_NW BOM_LAT BOM_LON BOM_TYPE BOM_WIND BOM_PRES BOM_TNUM BOM_CI BOM_RMW BOM_R34_NE BOM_R34_SE BOM_R34_SW BOM_R34_NW BOM_R50_NE BOM_R50_SE BOM_R50_SW BOM_R50_NW BOM_R64_NE BOM_R64_SE BOM_R64_SW BOM_R64_NW BOM_ROCI BOM_POCI BOM_EYE BOM_POS_METHOD BOM_PRES_METHOD NADI_LAT NADI_LON NADI_CAT NADI_WIND NADI_PRES WELLINGTON_LAT WELLINGTON_LON WELLINGTON_WIND WELLINGTON_PRES DS824_LAT DS824_LON DS824_STAGE DS824_WIND DS824_PRES TD9636_LAT TD9636_LON TD9636_STAGE TD9636_WIND TD9636_PRES TD9635_LAT TD9635_LON TD9635_WIND TD9635_PRES TD9635_ROCI NEUMANN_LAT NEUMANN_LON NEUMANN_CLASS NEUMANN_WIND NEUMANN_PRES MLC_LAT MLC_LON MLC_CLASS MLC_WIND MLC_PRES USA_GUST BOM_GUST BOM_GUST_PER REUNION_GUST REUNION_GUST_PER USA_SEAHGT USA_SEARAD_NE USA_SEARAD_SE USA_SEARAD_SW USA_SEARAD_NW STORM_SPEED STORM_DIR
1971348N07073 1971 160 NI AS NOT_NAMED 1971-12-14 03:00:00 NR 6.80000 72.7000 main 480 480 __________O___ -1 6.80000 72.7000 1 2 282
1971348N07073 1971 160 NI AS NOT_NAMED 1971-12-14 06:00:00 TS 6.81950 72.5992 main 490 490 O________OP___ jtwc_io IO191971 6.80000 72.6000 -1 6.80000 72.6000 TC 25 6.83901 72.5984 1 2 287
1971348N07073 1971 160 NI AS NOT_NAMED 1971-12-14 09:00:00 TS 6.85817 72.5118 main 494 494 P________PP___ IO191971 6.83999 72.5375 -1 6.83999 72.5375 TC 25 6.88241 72.4775 1 2 292
1971348N07073 1971 160 NI AS NOT_NAMED 1971-12-14 12:00:00 TS 6.91385 72.3671 main 504 504 O________OP___ jtwc_io IO191971 6.90000 72.4000 -1 6.90000 72.4000 TC 25 6.93462 72.3178 1 4 290
1971348N07073 1971 160 NI AS NOT_NAMED 1971-12-14 15:00:00 TS 6.99501 72.1250 main 529 529 P________PO___ IO191971 6.99251 72.1375 -1 6.99251 72.1375 TC 25 7.00000 72.1000 1 6 288
1971348N07073 1971 160 NI AS NOT_NAMED 1971-12-14 18:00:00 TS 7.09388 71.8039 main 555 555 O________OP___ jtwc_io IO191971 7.10000 71.8000 -1 7.10000 71.8000 TC 25 7.08163 71.8116 1 7 287
1971348N07073 1971 160 NI AS NOT_NAMED 1971-12-14 21:00:00 TS 7.19251 71.4658 main 582 582 P________PP___ IO191971 7.19997 71.4650 -1 7.19997 71.4650 TC 25 7.17758 71.4675 1 7 286
1971348N07073 1971 160 NI AS NOT_NAMED 1971-12-15 00:00:00 TS 7.29491 71.0965 main 619 619 O________OP___ jtwc_io IO191971 7.30000 71.1000 -1 7.30000 71.1000 TC 25 7.28472 71.0896 1 8 285
1971348N07073 1971 160 NI AS NOT_NAMED 1971-12-15 03:00:00 TS 7.39500 70.7000 main 655 655 P________PO___ IO191971 7.39250 70.7000 -1 7.39250 70.7000 TC 25 7.40000 70.7000 1 8 285
1971348N07073 1971 160 NI AS NOT_NAMED 1971-12-15 06:00:00 TS 7.49909 70.3188 main 693 693 O________OP___ jtwc_io IO191971 7.50000 70.3000 -1 7.50000 70.3000 TC 25 7.49728 70.3563 1 8 288
1971348N07073 1971 160 NI AS NOT_NAMED 1971-12-15 09:00:00 TS 7.62983 69.9723 main 722 722 P________PP___ IO191971 7.64241 69.9575 -1 7.64241 69.9575 TC 25 7.60465 70.0020 1 8 292
1971348N07073 1971 160 NI AS NOT_NAMED 1971-12-15 12:00:00 TS 7.77824 69.6073 main 758 758 O________OP___ jtwc_io IO191971 7.80000 69.6000 -1 7.80000 69.6000 TC 25 7.73471 69.6218 1 8 291
1971348N07073 1971 160 NI AS NOT_NAMED 1971-12-15 15:00:00 TS 7.92331 69.1816 main 799 799 P________PO___ IO191971 7.93497 69.1724 -1 7.93497 69.1724 TC 25 7.90000 69.2000 1 9 290
1971348N07073 1971 160 NI AS NOT_NAMED 1971-12-15 18:00:00 TS 8.09247 68.7113 main 835 835 O________OP___ jtwc_io IO191971 8.10000 68.7000 -1 8.10000 68.7000 TC 25 8.07742 68.7338 1 10 292
1971348N07073 1971 160 NI AS NOT_NAMED 1971-12-15 21:00:00 TS 8.31155 68.2230 main 871 871 P________PP___ IO191971 8.31991 68.2224 -1 8.31991 68.2224 TC 30 8.29484 68.2241 1 11 296
1971348N07073 1971 160 NI AS NOT_NAMED 1971-12-16 00:00:00 TS 8.58828 67.6924 main 904 904 O________OP___ jtwc_io IO191971 8.60000 67.7000 -1 8.60000 67.7000 TC 35 8.56483 67.6773 1 12 298
1971348N07073 1971 160 NI AS NOT_NAMED 1971-12-16 03:00:00 TS 8.90327 67.1198 main 947 947 P________PO___ IO191971 8.90490 67.1297 -1 8.90490 67.1297 TC 35 8.90000 67.1000 2 14 301
1971348N07073 1971 160 NI AS NOT_NAMED 1971-12-16 06:00:00 TS 9.30898 66.4866 main 987 987 O________OP___ jtwc_io IO191971 9.30000 66.5000 -1 9.30000 66.5000 TC 35 9.32695 66.4599 2 16 305
1971348N07073 1971 160 NI AS NOT_NAMED 1971-12-16 09:00:00 TS 9.83282 65.7848 main 1037 1037 P________PP___ IO191971 9.84265 65.7778 -1 9.84265 65.7778 TC 35 9.81316 65.7987 2 17 308
1971348N07073 1971 160 NI AS NOT_NAMED 1971-12-16 12:00:00 TS 10.3726 65.1210 main 1090 1090 O________OP___ jtwc_io IO191971 10.4000 65.1000 -1 10.4000 65.1000 TC 35 10.3177 65.1630 2 15 310
1971348N07073 1971 160 NI AS NOT_NAMED 1971-12-16 15:00:00 TS 10.8199 64.5932 main 1117 1067 P________PO___ IO191971 10.8298 64.5898 -1 10.8298 64.5898 TC 35 10.8000 64.6000 2 12 312
1971348N07073 1971 160 NI AS NOT_NAMED 1971-12-16 18:00:00 TS 11.1996 64.1913 main 1067 1030 O________OP___ jtwc_io IO191971 11.2000 64.2000 -1 11.2000 64.2000 TC 35 11.1989 64.1740 2 10 316
1971348N07073 1971 160 NI AS NOT_NAMED 1971-12-16 21:00:00 TS 11.5571 63.8694 main 1028 992 P________PP___ IO191971 11.5498 63.8922 -1 11.5498 63.8922 TC 50 11.5715 63.8237 2 9 320
1971348N07073 1971 160 NI AS NOT_NAMED 1971-12-17 00:00:00 TS 11.9111 63.5705 main 992 945 O________OP___ jtwc_io IO191971 11.9000 63.6000 -1 11.9000 63.6000 TC 65 11.9334 63.5116 2 10 319
1971348N07073 1971 160 NI AS NOT_NAMED 1971-12-17 03:00:00 TS 12.2950 63.2050 main 945 884 P________PO___ IO191971 12.2925 63.2075 -1 12.2925 63.2075 TC 65 12.3000 63.2000 4 11 317
1971348N07073 1971 160 NI AS NOT_NAMED 1971-12-17 06:00:00 TS 12.7044 62.8080 main 884 829 O________OP___ jtwc_io IO191971 12.7000 62.8000 -1 12.7000 62.8000 TC 65 12.7131 62.8242 4 11 318
1971348N07073 1971 160 NI AS NOT_NAMED 1971-12-17 09:00:00 TS 13.1149 62.4425 main 823 767 P________PP___ IO191971 13.1074 62.4424 -1 13.1074 62.4424 TC 65 13.1300 62.4427 4 11 319
1971348N07073 1971 160 NI AS NOT_NAMED 1971-12-17 12:00:00 TS 13.5106 62.0883 main 767 712 O________OP___ jtwc_io IO191971 13.5000 62.1000 -1 13.5000 62.1000 TC 65 13.5318 62.0648 4 10 318
1971348N07073 1971 160 NI AS NOT_NAMED 1971-12-17 15:00:00 TS 13.8816 61.7333 main 706 660 P________PO___ IO191971 13.8724 61.7499 -1 13.8724 61.7499 TC 65 13.9000 61.7000 4 10 316
1971348N07073 1971 160 NI AS NOT_NAMED 1971-12-17 18:00:00 TS 14.1994 61.3960 main 660 623 O________OP___ jtwc_io IO191971 14.2000 61.4000 -1 14.2000 61.4000 TC 65 14.1982 61.3880 4 9 311
1971348N07073 1971 160 NI AS NOT_NAMED 1971-12-17 21:00:00 TS 14.4547 61.0619 main 614 571 P________PP___ IO191971 14.4499 61.0498 -1 14.4499 61.0498 TC 65 14.4642 61.0860 4 8 308
1971348N07073 1971 160 NI AS NOT_NAMED 1971-12-18 00:00:00 TS 14.7077 60.7220 main 571 526 O________OP___ jtwc_io IO191971 14.7000 60.7000 -1 14.7000 60.7000 TC 65 14.7231 60.7661 4 9 311
1971348N07073 1971 160 NI AS NOT_NAMED 1971-12-18 03:00:00 TS 15.0232 60.3865 main 526 465 P________PO___ IO191971 15.0348 60.3798 -1 15.0348 60.3798 TC 65 15.0000 60.4000 4 10 313
1971348N07073 1971 160 NI AS NOT_NAMED 1971-12-18 06:00:00 TS 15.3858 59.9729 main 465 409 O________OP___ jtwc_io IO191971 15.4000 60.0000 -1 15.4000 60.0000 TC 65 15.3575 59.9187 4 12 309
1971348N07073 1971 160 NI AS NOT_NAMED 1971-12-18 09:00:00 TS 15.7537 59.4414 main 393 331 P________PP___ IO191971 15.7652 59.4652 -1 15.7652 59.4652 TC 65 15.7309 59.3938 4 13 304
1971348N07073 1971 160 NI AS NOT_NAMED 1971-12-18 12:00:00 TS 16.0963 58.8906 main 331 269 O________OP___ jtwc_io IO191971 16.1000 58.9000 -1 16.1000 58.9000 TC 65 16.0888 58.8718 4 12 303
1971348N07073 1971 160 NI AS NOT_NAMED 1971-12-18 15:00:00 TS 16.3866 58.4083 main 269 223 P________PO___ IO191971 16.3799 58.4124 -1 16.3799 58.4124 TC 50 16.4000 58.4000 4 10 301
1971348N07073 1971 160 NI AS NOT_NAMED 1971-12-18 18:00:00 TS 16.6083 58.0044 main 223 184 O________OP___ jtwc_io IO191971 16.6000 58.0000 -1 16.6000 58.0000 TC 35 16.6249 58.0133 4 8 299
1971348N07073 1971 160 NI AS NOT_NAMED 1971-12-18 21:00:00 TS 16.7723 57.6704 main 184 154 P________PP___ IO191971 16.7574 57.6623 -1 16.7574 57.6623 TC 35 16.8020 57.6866 4 7 298
1971348N07073 1971 160 NI AS NOT_NAMED 1971-12-19 00:00:00 TS 16.9177 57.4056 main 154 123 O________OP___ jtwc_io IO191971 16.9000 57.4000 -1 16.9000 57.4000 TC 35 16.9532 57.4167 4 6 305
1971348N07073 1971 160 NI AS NOT_NAMED 1971-12-19 03:00:00 TS 17.1000 57.1850 main 123 92 P________PO___ IO191971 17.0999 57.1775 -1 17.0999 57.1775 TC 30 17.1000 57.2000 2 5 314
1971348N07073 1971 160 NI AS NOT_NAMED 1971-12-19 06:00:00 TS 17.2929 56.9947 main 92 70 O________OP___ jtwc_io IO191971 17.3000 57.0000 -1 17.3000 57.0000 TC 25 17.2788 56.9840 2 5 315
1971348N07073 1971 160 NI AS NOT_NAMED 1971-12-19 09:00:00 TS 17.4524 56.8208 main 61 46 P________PP___ IO191971 17.4500 56.8200 -1 17.4500 56.8200 TC 25 17.4572 56.8226 2 4 319
1971348N07073 1971 160 NI AS NOT_NAMED 1971-12-19 12:00:00 TS 17.6107 56.7083 main 46 30 O________OP___ jtwc_io IO191971 17.6000 56.7000 -1 17.6000 56.7000 TC 25 17.6320 56.7248 2 4 338
1971348N07073 1971 160 NI AS NOT_NAMED 1971-12-19 15:00:00 TS 17.8000 56.6700 main 30 15 P________PO___ IO191971 17.8000 56.6550 -1 17.8000 56.6550 TC 25 17.8000 56.7000 6 4 356
1971348N07073 1971 160 NI AS NOT_NAMED 1971-12-19 18:00:00 TS 17.9829 56.7055 main 15 10 O________OP___ jtwc_io IO191971 18.0000 56.7000 -1 18.0000 56.7000 TC 25 17.9488 56.7166 6 4 21
1971348N07073 1971 160 NI AS NOT_NAMED 1971-12-19 21:00:00 TS 18.1357 56.8109 main 21 21 P________PP___ IO191971 18.1575 56.8125 -1 18.1575 56.8125 TC 25 18.0921 56.8077 6 4 42
1971348N07073 1971 160 NI AS NOT_NAMED 1971-12-20 00:00:00 TS 18.2798 56.9900 main 42 42 O________OP___ jtwc_io IO191971 18.3000 57.0000 -1 18.3000 57.0000 TC 25 18.2394 56.9699 6 5 53
1971348N07073 1971 160 NI AS NOT_NAMED 1971-12-20 03:00:00 TS 18.4283 57.2134 main 53 44 P________PO___ IO191971 18.4424 57.2201 -1 18.4424 57.2201 TC 25 18.4000 57.2000 6 6 55
1971348N07073 1971 160 NI AS NOT_NAMED 1971-12-20 06:00:00 TS 18.6031 57.4788 main 44 22 O________OP___ jtwc_io IO191971 18.6000 57.5000 -1 18.6000 57.5000 TC 25 18.6094 57.4363 6 7 55
1971348N07073 1971 160 NI AS NOT_NAMED 1971-12-20 09:00:00 TS 18.8096 57.7940 main 22 15 P________PP___ IO191971 18.7999 57.8200 -1 18.7999 57.8200 TC 25 18.8290 57.7421 6 8 58
1971348N07073 1971 160 NI AS NOT_NAMED 1971-12-20 12:00:00 TS 19.0114 58.1756 main 42 42 O________OP___ jtwc_io IO191971 19.0000 58.2000 -1 19.0000 58.2000 TC 25 19.0341 58.1269 6 9 64
1971348N07073 1971 160 NI AS NOT_NAMED 1971-12-20 15:00:00 TS 19.1815 58.6033 main 86 86 P________PO___ IO191971 19.1722 58.6050 -1 19.1722 58.6050 TC 25 19.2000 58.6000 6 9 72
1971348N07073 1971 160 NI AS NOT_NAMED 1971-12-20 18:00:00 TS 19.3034 59.1260 main 133 133 O________OP___ jtwc_io IO191971 19.3000 59.1000 -1 19.3000 59.1000 TC 25 19.3085 59.1650 6 11 80
1971348N07073 1971 160 NI AS NOT_NAMED 1971-12-20 21:00:00 TS 19.3680 59.7527 main 176 176 P________PP___ IO191971 19.3682 59.7150 -1 19.3682 59.7150 TC 25 19.3679 59.8029 6 12 86
1971348N07073 1971 160 NI AS NOT_NAMED 1971-12-21 00:00:00 TS 19.3966 60.4447 main 227 227 O________OP___ jtwc_io IO191971 19.4000 60.4000 -1 19.4000 60.4000 TC 25 19.3932 60.4894 6 14 89
1971348N07073 1971 160 NI AS NOT_NAMED 1971-12-21 03:00:00 NR 19.4000 61.2000 main 298 __________O___ IO191971 -1 TC 19.4000 61.2000 6 14 90

IBTrACS Databaseについて

本データベースは、米国NOAAが公開する1842年以降の世界の熱帯低気圧のベストトラックデータアーカイブInternational Best Track Archive for Climate Stewardship (IBTrACS)を、ウェブで閲覧しやすい形式に変換したものです。

最終更新日:2021-10-08